Bancroft, NE (68004)

20:46 CDT le 27 Mars 2015 (GMT -0500)
West Point Public Schools Alternative Energy Building | | Change Station
CLOSE
Current Station
Stations météorologiques personnelles
Location: West Point, NE
Altitude: 1575 ft
Stations météo à proximité

Alt. 1575 ft 41.84 °N, 96.69 °W | Updated 34 seconds ago

Couvert
Couvert
33.6 ° F
Paraît 28 ° F
N
6.0
Vent Variable Vent de SSE
Gusts 10.0 mph

Aujourd'hui
Haut(e) -- | Bas -- ° F
--% Risque de précip.
Hier
Haut(e) -- | Bas -- ° F
Precip. -- pouce
7:17 AM 7:46 PM
Premier quartier, 57% visible
Pression 30.05 pouce
Visibilité 10.0 Miles terrestres
Nuages Couvert 4400 ft
Refroidissement éolien 28 ° F
Point de rosée 25 ° F
Humidité 70%
Précipitations 0.00 pouce
Profondeur de la couche neigeuse Non disponible.
UV 0 sur 12
Pollen 3.90 sur 12
Qualité de l'air Non disponible.
Flu Activity Non disponible.
METAR KLCG 280135Z AUTO 16010KT 10SM OVC044 01/M03 A3005 RMK AO2 T00101032

More Conditions Fewer Conditions

Pression 30.05 pouce
Visibilité 10.0 Miles terrestres
Nuages Couvert 4400 ft
Refroidissement éolien 28 ° F
Point de rosée 25 ° F
Humidité 70%
Précipitations 0.00 pouce
Profondeur de la couche neigeuse Non disponible.
UV 0 sur 12
Pollen 3.90 sur 12
Qualité de l'air Non disponible.
Flu Activity Non disponible.
METAR KLCG 280135Z AUTO 16010KT 10SM OVC044 01/M03 A3005 RMK AO2 T00101032

More Conditions Fewer Conditions

10-Day Weather Forecast

Almanac

Astronomie

Mar. 27, 2015 Lever Coucher
Temps réel
Crépuscule civil
Crépuscule nautique
Crépuscule astronomique
Lune
Durée de lumière visible
Longueur du jour
Tomorrow will be .
, % of the Moon is Illuminated

Extrêmes aujourd'hui

State Highs State Lows

Community

WunderPhotos

Upload Photos

1,808,911 Photos téléchargées !

WunderBlogs® & News

Nearby

Qualité de l'air

  Qualité de l'air Indice de la qualité de l'air Polluant
Not available.

Épaisseur de neige

Station Depth Altitude

Activité sismique

Ville Distance Mag. Time & Date
Minimum magnitude displayed is 2.5.

Températures des eaux côtières

Lieu Température

Stations

Stations météo à proximité

Emplacement de la station Température Refroidissement éolien Point de rosée Humidité Vent Precip. Alt. Mise à jour Type